Rock Springs Sweetwater County Airport
KRKS : now visible

Airfield :











YOU CAN JOIN US ON...

 
LOGIN :

Register | Disclaimer

   EN    FR    IT 

 









Legend :    VFR   Marginal VFR   IFR   Intensive IFR   Very Intensive IFR
Visi :
Ceiling :
>= 8 km
>= 3000ft
5 to 8 km
1000 to 3000 ft
1500m to 5 km
500 to 1000 ft
800 to 1500m
200 to 500 ft
< 800m
< 200 ft
Symbols :   Thunderstorms  Fog  Heavy snow  Heavy precipitations  Wind > 20 kt







- Airport Elevation : 6764 ft
- IATA code : RKS


KRKS - Rock Springs Sweetwater County

CURRENT METAR :
  • 211654Z AUTO 25015KT 10SM CLR 09/00 A3019 RMK AO2 SLP195 T00940000

EXPIRED METARs :
  • 211554Z AUTO 27014G21KT 10SM CLR 08/00 A3019 RMK AO2 SLP198 T00830000
  • 211454Z AUTO 25009KT 10SM BKN050 06/00 A3019 RMK AO2 SLP201 T00560000 53009

TAF KRKS
Valid from the 21 at 12:00 until the 22 at 12:00 UTC


211138Z 2112/2212 25015KT P6SM FEW050
FM211600 26015G25KT P6SM SCT050
FM220100 27010KT P6SM SCT050
FM220400 24006KT P6SM SKC
No reported NOTAMs for that airfield.



MET'MAP, your aeronautical weather chart ! - Copyright ORBIFLY December 2007 - Disclaimer

ORBIFLY MET'MAP TEAM :

Programming & Development : Alexandra Zaïnal
Concept & Development : Baudouin d'Aumeries
Co-Development & Prog : Marc-Olivier Méhu
Technical & hardware support : Manuel Goepfert

Contact : metmap@orbifly.com




SOURCES & CREDITS :

   NOAA       Earth
Advisory